createdAt,value
2018-07-12T00:00:14.966Z,25.50
2018-07-12T00:02:42.585Z,23.20
2018-07-12T00:05:09.895Z,25.50
2018-07-12T00:07:37.451Z,26.63
2018-07-12T00:10:04.779Z,29.23
2018-07-12T00:12:32.070Z,25.37
2018-07-12T00:14:59.405Z,24.67
2018-07-12T00:17:26.735Z,27.50
2018-07-12T00:19:54.290Z,25.23
2018-07-12T00:22:21.918Z,30.10
2018-07-12T00:24:49.546Z,29.27
2018-07-12T00:27:16.834Z,31.90
2018-07-12T00:29:44.395Z,26.80
2018-07-12T00:32:11.994Z,23.67
2018-07-12T00:34:39.301Z,24.30
2018-07-12T00:37:06.922Z,23.13
2018-07-12T00:39:34.237Z,28.60
2018-07-12T00:42:01.843Z,19.70
2018-07-12T00:44:29.415Z,28.60
2018-07-12T00:46:56.742Z,30.50
2018-07-12T00:49:26.291Z,25.47
2018-07-12T00:51:53.901Z,29.50
2018-07-12T00:54:21.570Z,26.00
2018-07-12T00:56:49.144Z,30.10
2018-07-12T00:59:16.498Z,24.90
2018-07-12T01:01:46.622Z,22.10
2018-07-12T01:04:13.978Z,23.90
2018-07-12T01:06:41.342Z,27.63
2018-07-12T01:09:08.657Z,25.77
2018-07-12T01:11:36.237Z,26.73
2018-07-12T01:14:03.845Z,24.80
2018-07-12T01:16:31.156Z,26.50
2018-07-12T01:18:58.758Z,29.77
2018-07-12T01:21:26.382Z,26.40
2018-07-12T01:23:53.703Z,33.50
2018-07-12T01:26:21.296Z,27.17
2018-07-12T01:28:48.913Z,26.20
2018-07-12T01:31:16.232Z,26.13
2018-07-12T01:33:43.798Z,24.47
2018-07-12T01:36:11.187Z,20.17
2018-07-12T01:38:38.478Z,28.23
2018-07-12T01:41:06.047Z,27.20
2018-07-12T01:43:33.635Z,34.93
2018-07-12T01:46:00.942Z,33.57
2018-07-12T01:48:28.256Z,28.50
2018-07-12T01:50:55.626Z,25.50
2018-07-12T01:53:23.103Z,27.57
2018-07-12T01:55:50.690Z,25.50
2018-07-12T01:58:18.027Z,24.83
2018-07-12T02:00:45.871Z,27.53
2018-07-12T02:03:13.490Z,28.73
2018-07-12T02:05:41.262Z,27.43
2018-07-12T02:08:08.796Z,30.50
2018-07-12T02:10:36.142Z,30.80
2018-07-12T02:13:03.698Z,30.27
2018-07-12T02:15:31.471Z,28.87
2018-07-12T02:17:59.057Z,23.30
2018-07-12T02:20:26.655Z,30.40
2018-07-12T02:22:54.172Z,21.37
2018-07-12T02:25:21.497Z,30.07
2018-07-12T02:27:49.080Z,29.07
2018-07-12T02:30:16.663Z,29.17
2018-07-12T02:32:44.229Z,27.70
2018-07-12T02:35:11.602Z,25.97
2018-07-12T02:37:38.908Z,30.53
2018-07-12T02:40:06.306Z,23.90
2018-07-12T02:42:33.867Z,25.83
2018-07-12T02:45:01.193Z,29.50
2018-07-12T02:47:28.758Z,29.80
2018-07-12T02:49:56.057Z,29.43
2018-07-12T02:52:23.639Z,27.70
2018-07-12T02:54:51.205Z,23.67
2018-07-12T02:57:18.533Z,28.93
2018-07-12T02:59:46.084Z,24.30
2018-07-12T03:02:13.405Z,25.40
2018-07-12T03:04:40.972Z,22.70
2018-07-12T03:07:08.556Z,26.50
2018-07-12T03:09:36.111Z,30.33
2018-07-12T03:12:03.699Z,25.67
2018-07-12T03:14:30.985Z,26.43
2018-07-12T03:16:58.590Z,35.63
2018-07-12T03:19:25.895Z,26.93
2018-07-12T03:21:53.221Z,28.33
2018-07-12T03:24:20.783Z,29.53
2018-07-12T03:26:48.349Z,30.40
2018-07-12T03:29:15.902Z,34.87
2018-07-12T03:31:43.210Z,24.97
2018-07-12T03:34:11.008Z,25.63
2018-07-12T03:36:38.629Z,27.37
2018-07-12T03:39:05.979Z,23.30
2018-07-12T03:41:33.580Z,25.73
2018-07-12T03:44:01.021Z,24.03
2018-07-12T03:46:28.422Z,24.70
2018-07-12T03:48:55.759Z,24.57
2018-07-12T03:51:23.366Z,33.47
2018-07-12T03:53:50.951Z,35.53
2018-07-12T03:56:18.510Z,34.10
2018-07-12T03:58:45.954Z,27.63
2018-07-12T04:01:13.513Z,28.97
2018-07-12T04:03:40.898Z,34.33
2018-07-12T04:06:08.443Z,33.00
2018-07-12T04:08:36.038Z,32.33
2018-07-12T04:11:03.628Z,34.03
2018-07-12T04:13:31.210Z,34.13
2018-07-12T04:15:58.785Z,24.20
2018-07-12T04:18:26.378Z,26.73
2018-07-12T04:20:54.751Z,23.73
2018-07-12T04:23:22.366Z,21.90
2018-07-12T04:25:49.992Z,28.93
2018-07-12T04:28:17.319Z,22.37
2018-07-12T04:30:44.915Z,23.63
2018-07-12T04:33:12.469Z,23.20
2018-07-12T04:35:39.799Z,25.60
2018-07-12T04:38:07.384Z,27.00
2018-07-12T04:40:35.127Z,31.63
2018-07-12T04:43:02.553Z,30.33
2018-07-12T04:45:30.186Z,31.27
2018-07-12T04:47:57.780Z,34.57
2018-07-12T04:50:25.520Z,36.53
2018-07-12T04:52:53.080Z,29.20
2018-07-12T04:55:20.414Z,23.33
2018-07-12T04:57:48.009Z,29.43
2018-07-12T05:00:15.581Z,25.60
2018-07-12T05:02:42.888Z,30.13
2018-07-12T05:05:10.222Z,29.07
2018-07-12T05:07:40.618Z,24.80
2018-07-12T05:10:08.467Z,28.50
2018-07-12T05:12:36.042Z,33.70
2018-07-12T05:15:03.695Z,33.70
2018-07-12T05:17:31.133Z,32.83
2018-07-12T05:19:58.506Z,46.20
2018-07-12T05:22:25.819Z,39.87
2018-07-12T05:24:53.132Z,35.83
2018-07-12T05:27:20.480Z,34.03
2018-07-12T05:29:48.103Z,33.97
2018-07-12T05:32:15.400Z,30.43
2018-07-12T05:34:42.721Z,27.70
2018-07-12T05:37:11.186Z,35.43
2018-07-12T05:39:39.297Z,24.50
2018-07-12T05:42:07.699Z,37.90
2018-07-12T05:44:36.138Z,24.73
2018-07-12T05:47:04.286Z,27.27
2018-07-12T05:49:32.734Z,29.27
2018-07-12T05:52:00.839Z,27.40
2018-07-12T05:54:29.126Z,31.70
2018-07-12T05:56:57.655Z,27.50
2018-07-12T05:59:26.103Z,26.53
2018-07-12T06:01:59.813Z,26.10
2018-07-12T06:04:28.263Z,22.97
2018-07-12T06:06:56.697Z,23.43
2018-07-12T06:09:24.798Z,28.90
2018-07-12T06:11:53.307Z,22.93
2018-07-12T06:14:21.709Z,21.10
2018-07-12T06:16:50.169Z,23.40
2018-07-12T06:19:18.269Z,18.57
2018-07-12T06:21:47.647Z,20.90
2018-07-12T06:24:16.339Z,28.33
2018-07-12T06:26:44.853Z,20.47
2018-07-12T06:29:13.261Z,22.37
2018-07-12T06:31:41.744Z,25.80
2018-07-12T06:34:10.162Z,25.00
2018-07-12T06:36:38.293Z,23.97
2018-07-12T06:39:08.436Z,21.70
2018-07-12T06:41:36.606Z,24.43
2018-07-12T06:44:05.073Z,26.97
2018-07-12T06:46:33.568Z,25.60
2018-07-12T06:49:02.054Z,19.90
2018-07-12T06:51:30.520Z,18.67
2018-07-12T06:53:58.970Z,22.33
2018-07-12T06:56:27.381Z,19.83
2018-07-12T06:58:55.865Z,18.33
2018-07-12T07:01:24.333Z,16.17
2018-07-12T07:03:52.769Z,18.07
2018-07-12T07:06:21.223Z,16.90
2018-07-12T07:08:49.361Z,22.33
2018-07-12T07:11:17.792Z,20.07
2018-07-12T07:13:46.271Z,22.40
2018-07-12T07:16:14.672Z,19.63
2018-07-12T07:18:43.118Z,16.97
2018-07-12T07:21:11.220Z,19.20
2018-07-12T07:23:39.624Z,25.40
2018-07-12T07:26:08.089Z,14.80
2018-07-12T07:28:36.555Z,23.07
2018-07-12T07:31:04.725Z,18.00
2018-07-12T07:33:33.196Z,17.20
2018-07-12T07:36:01.325Z,21.63
2018-07-12T07:38:29.737Z,38.43
2018-07-12T07:40:59.678Z,19.53
2018-07-12T07:43:27.843Z,18.23
2018-07-12T07:45:56.279Z,16.23
2018-07-12T07:48:24.709Z,19.40
2018-07-12T07:50:53.190Z,24.03
2018-07-12T07:53:21.592Z,32.93
2018-07-12T07:55:50.032Z,13.87
2018-07-12T07:58:18.180Z,13.43
2018-07-12T08:00:46.690Z,14.40
2018-07-12T08:03:14.829Z,16.93
2018-07-12T08:05:44.994Z,14.07
2018-07-12T08:08:13.432Z,17.70
2018-07-12T08:10:41.589Z,16.97
2018-07-12T08:13:09.734Z,14.17
2018-07-12T08:15:38.224Z,13.97
2018-07-12T08:18:06.706Z,16.67
2018-07-12T08:20:35.175Z,16.23
2018-07-12T08:23:03.737Z,13.63
2018-07-12T08:25:32.233Z,11.43
2018-07-12T08:28:05.973Z,10.30
2018-07-12T08:30:34.378Z,10.37
2018-07-12T08:33:02.492Z,7.93
2018-07-12T08:35:31.387Z,11.63
2018-07-12T08:38:01.451Z,8.10
2018-07-12T08:40:29.895Z,8.10
2018-07-12T08:42:58.358Z,8.30
2018-07-12T08:45:27.076Z,6.80
2018-07-12T08:47:55.214Z,7.27
2018-07-12T08:50:23.669Z,8.70
2018-07-12T08:52:52.264Z,8.70
2018-07-12T08:55:20.417Z,11.27
2018-07-12T08:57:48.842Z,8.00
2018-07-12T09:00:17.329Z,9.53
2018-07-12T09:02:45.504Z,7.87
2018-07-12T09:05:13.960Z,5.77
2018-07-12T09:07:42.408Z,9.43
2018-07-12T09:10:10.898Z,5.63
2018-07-12T09:12:39.410Z,7.00
2018-07-12T09:15:08.000Z,6.77
2018-07-12T09:17:38.285Z,10.50
2018-07-12T09:20:06.385Z,6.50
2018-07-12T09:22:34.483Z,8.63
2018-07-12T09:25:02.987Z,8.23
2018-07-12T09:27:31.415Z,7.23
2018-07-12T09:30:00.993Z,7.83
2018-07-12T09:32:31.385Z,7.07
2018-07-12T09:35:01.770Z,8.03
2018-07-12T09:37:30.238Z,8.43
2018-07-12T09:39:58.721Z,7.80
2018-07-12T09:42:27.214Z,7.67
2018-07-12T09:44:55.689Z,7.20
2018-07-12T09:47:24.137Z,8.13
2018-07-12T09:49:52.582Z,7.03
2018-07-12T09:52:26.098Z,7.30
2018-07-12T09:54:54.551Z,6.80
2018-07-12T09:57:34.236Z,7.40
2018-07-12T10:00:03.496Z,9.63
2018-07-12T10:02:37.511Z,6.30
2018-07-12T10:05:10.222Z,7.07
2018-07-12T10:07:42.209Z,8.43
2018-07-12T10:10:10.633Z,9.00
2018-07-12T10:12:44.161Z,8.50
2018-07-12T10:15:16.849Z,7.23
2018-07-12T10:17:50.747Z,7.60
2018-07-12T10:20:19.327Z,10.67
2018-07-12T10:22:47.747Z,11.10
2018-07-12T10:25:15.914Z,7.20
2018-07-12T10:27:44.625Z,9.83
2018-07-12T10:30:13.097Z,10.30
2018-07-12T10:32:42.202Z,7.97
2018-07-12T10:35:10.632Z,6.93
2018-07-12T10:37:39.066Z,7.90
2018-07-12T10:40:08.238Z,6.83
2018-07-12T10:42:38.712Z,17.40
2018-07-12T10:45:07.150Z,8.17
2018-07-12T10:47:35.302Z,7.57
2018-07-12T10:50:05.468Z,7.40
2018-07-12T10:52:34.265Z,6.77
2018-07-12T10:55:02.955Z,11.13
2018-07-12T10:57:31.664Z,9.70
2018-07-12T11:00:03.215Z,7.57
2018-07-12T11:02:33.431Z,7.93
2018-07-12T11:05:02.067Z,9.00
2018-07-12T11:07:37.571Z,10.03
2018-07-12T11:10:06.775Z,13.20
2018-07-12T11:12:35.487Z,9.27
2018-07-12T11:15:06.834Z,14.30
2018-07-12T11:17:40.411Z,9.30
2018-07-12T11:20:12.921Z,10.83
2018-07-12T11:22:44.213Z,8.37
2018-07-12T11:25:18.355Z,8.20
2018-07-12T11:27:55.003Z,11.17
2018-07-12T11:30:28.761Z,12.30
2018-07-12T11:33:08.201Z,8.83
2018-07-12T11:35:39.384Z,17.17
2018-07-12T11:38:12.027Z,18.63
2018-07-12T11:40:48.807Z,7.37
2018-07-12T11:43:28.055Z,9.50
2018-07-12T11:46:00.902Z,9.33
2018-07-12T11:48:35.008Z,13.10
2018-07-12T11:51:06.231Z,6.63
2018-07-12T11:53:38.447Z,12.37
2018-07-12T11:56:09.217Z,6.77
2018-07-12T12:07:10.448Z,11.60
2018-07-12T12:09:38.986Z,9.40
2018-07-12T12:12:07.125Z,11.80
2018-07-12T12:14:35.789Z,8.00
2018-07-12T12:17:06.299Z,7.50
2018-07-12T12:19:34.810Z,8.47
2018-07-12T12:22:03.319Z,9.43
2018-07-12T12:24:31.443Z,15.07
2018-07-12T12:26:59.895Z,8.93
2018-07-12T12:29:28.046Z,11.20
2018-07-12T12:31:56.563Z,7.80
2018-07-12T12:34:24.668Z,14.70
2018-07-12T12:36:53.113Z,12.10
2018-07-12T12:39:21.524Z,10.23
2018-07-12T12:41:49.994Z,15.53
2018-07-12T12:44:18.134Z,8.13
2018-07-12T12:46:46.839Z,8.97
2018-07-12T12:49:15.040Z,12.83
2018-07-12T12:51:43.140Z,7.47
2018-07-12T12:54:11.242Z,6.90
2018-07-12T12:56:39.368Z,9.93
2018-07-12T12:59:07.458Z,17.83
2018-07-12T13:01:35.887Z,12.27
2018-07-12T13:04:04.337Z,9.63
2018-07-12T13:06:32.768Z,11.00
2018-07-12T13:09:01.205Z,6.43
2018-07-12T13:11:29.632Z,17.80
2018-07-12T13:13:58.095Z,9.40
2018-07-12T13:16:26.601Z,10.70
2018-07-12T13:18:55.071Z,10.27
2018-07-12T13:21:23.485Z,5.63
2018-07-12T13:23:51.915Z,8.67
2018-07-12T13:26:20.368Z,6.13
2018-07-12T13:28:48.801Z,9.53
2018-07-12T13:31:17.301Z,16.43
2018-07-12T13:33:45.695Z,8.23
2018-07-12T13:36:14.114Z,5.63
2018-07-12T13:38:42.221Z,8.53
2018-07-12T13:41:10.351Z,7.77
2018-07-12T13:43:38.777Z,9.03
2018-07-12T13:46:06.910Z,8.63
2018-07-12T13:48:35.067Z,6.37
2018-07-12T13:51:03.186Z,5.00
2018-07-12T13:53:31.290Z,10.33
2018-07-12T13:55:59.408Z,5.03
2018-07-12T13:58:27.946Z,4.30
2018-07-12T14:00:56.374Z,4.27
2018-07-12T14:03:24.937Z,4.30
2018-07-12T14:05:53.021Z,20.23
2018-07-12T14:08:37.512Z,6.40
2018-07-12T14:11:05.727Z,4.67
2018-07-12T14:13:34.167Z,6.50
2018-07-12T14:16:02.275Z,5.37
2018-07-12T14:18:30.731Z,3.20
2018-07-12T14:20:59.221Z,5.73
2018-07-12T14:23:27.421Z,5.93
2018-07-12T14:25:55.625Z,3.37
2018-07-12T14:28:23.749Z,8.27
2018-07-12T14:30:51.909Z,9.23
2018-07-12T14:33:20.022Z,3.97
2018-07-12T14:35:48.187Z,5.30
2018-07-12T14:38:16.308Z,5.93
2018-07-12T14:40:44.469Z,5.53
2018-07-12T14:43:12.934Z,3.23
2018-07-12T14:45:41.295Z,4.20
2018-07-12T14:48:09.942Z,8.73
2018-07-12T14:50:38.169Z,3.83
2018-07-12T14:53:06.604Z,7.53
2018-07-12T14:55:35.081Z,3.73
2018-07-12T14:58:03.496Z,3.90
2018-07-12T15:00:31.625Z,5.93
2018-07-12T15:02:59.731Z,3.37
2018-07-12T15:05:28.405Z,3.80
2018-07-12T15:07:56.846Z,4.13
2018-07-12T15:10:24.981Z,3.43
2018-07-12T15:12:53.401Z,3.57
2018-07-12T15:15:21.825Z,3.53
2018-07-12T15:17:50.315Z,3.13
2018-07-12T15:20:18.432Z,3.70
2018-07-12T15:22:46.564Z,3.27
2018-07-12T15:25:15.091Z,4.13
2018-07-12T15:27:43.652Z,5.00
2018-07-12T15:30:12.081Z,3.17
2018-07-12T15:32:40.202Z,3.60
2018-07-12T15:35:08.685Z,3.23
2018-07-12T15:37:36.781Z,3.17
2018-07-12T15:40:05.285Z,3.17
2018-07-12T15:42:33.802Z,3.43
2018-07-12T15:45:02.252Z,5.03
2018-07-12T15:47:30.720Z,3.80
2018-07-12T15:49:58.843Z,3.63
2018-07-12T15:52:27.348Z,3.17
2018-07-12T15:54:55.722Z,3.10
2018-07-12T15:57:24.191Z,3.87
2018-07-12T15:59:52.609Z,3.53
2018-07-12T16:02:21.090Z,3.40
2018-07-12T16:04:49.337Z,3.10
2018-07-12T16:07:17.509Z,2.77
2018-07-12T16:09:45.965Z,3.63
2018-07-12T16:12:20.700Z,2.73
2018-07-12T16:14:49.141Z,3.47
2018-07-12T16:17:17.270Z,3.40
2018-07-12T16:19:45.380Z,2.97
2018-07-12T16:22:13.492Z,3.67
2018-07-12T16:24:41.944Z,3.43
2018-07-12T16:27:10.493Z,2.90
2018-07-12T16:29:38.620Z,4.53
2018-07-12T16:32:07.123Z,3.53
2018-07-12T16:34:35.208Z,3.77
2018-07-12T16:37:03.733Z,3.33
2018-07-12T16:39:33.230Z,3.00
2018-07-12T16:42:01.779Z,4.37
2018-07-12T16:44:30.200Z,4.23
2018-07-12T16:46:58.356Z,3.97
2018-07-12T16:49:26.950Z,3.13
2018-07-12T16:52:00.675Z,7.20
2018-07-12T16:54:29.880Z,3.93
2018-07-12T16:56:58.132Z,5.27
2018-07-12T16:59:26.732Z,3.20
2018-07-12T17:01:55.164Z,8.63
2018-07-12T17:04:23.758Z,2.67
2018-07-12T17:06:52.382Z,7.83
2018-07-12T17:09:20.568Z,4.47
2018-07-12T17:11:49.019Z,3.97
2018-07-12T17:14:17.147Z,2.60
2018-07-12T17:16:45.600Z,3.40
2018-07-12T17:19:14.031Z,3.47
2018-07-12T17:21:42.444Z,3.17
2018-07-12T17:24:10.619Z,2.80
2018-07-12T17:26:39.039Z,7.57
2018-07-12T17:29:08.422Z,4.20
2018-07-12T17:31:37.032Z,5.23
2018-07-12T17:34:06.138Z,6.40
2018-07-12T17:36:34.302Z,5.30
2018-07-12T17:39:02.818Z,2.87
2018-07-12T17:41:30.977Z,5.03
2018-07-12T17:43:59.111Z,2.33
2018-07-12T17:46:27.643Z,2.87
2018-07-12T17:48:56.107Z,2.67
2018-07-12T17:51:24.235Z,4.20
2018-07-12T17:53:52.468Z,2.90
2018-07-12T17:56:20.969Z,3.53
2018-07-12T17:58:49.413Z,3.60
2018-07-12T18:01:18.202Z,4.20
2018-07-12T18:03:46.379Z,4.47
2018-07-12T18:06:14.848Z,2.83
2018-07-12T18:08:43.421Z,3.20
2018-07-12T18:11:11.938Z,3.63
2018-07-12T18:13:40.434Z,3.10
2018-07-12T18:16:08.895Z,3.50
2018-07-12T18:18:37.087Z,5.83
2018-07-12T18:21:05.503Z,3.07
2018-07-12T18:23:34.019Z,3.33
2018-07-12T18:26:02.565Z,3.93
2018-07-12T18:28:31.008Z,3.67
2018-07-12T18:30:59.225Z,7.73
2018-07-12T18:33:27.377Z,2.83
2018-07-12T18:35:56.437Z,8.70
2018-07-12T18:38:25.632Z,4.87
2018-07-12T18:40:54.110Z,3.90
2018-07-12T18:43:22.331Z,4.10
2018-07-12T18:45:50.540Z,4.93
2018-07-12T18:48:19.213Z,3.50
2018-07-12T18:50:47.771Z,5.90
2018-07-12T18:53:15.969Z,3.50
2018-07-12T18:55:44.165Z,4.40
2018-07-12T18:58:12.816Z,11.00
2018-07-12T19:00:41.107Z,4.00
2018-07-12T19:03:09.992Z,11.67
2018-07-12T19:05:38.405Z,5.83
2018-07-12T19:08:06.761Z,8.20
2018-07-12T19:10:35.182Z,12.90
2018-07-12T19:13:04.669Z,3.90
2018-07-12T19:15:34.295Z,3.67
2018-07-12T19:18:02.843Z,3.87
2018-07-12T19:20:31.341Z,4.30
2018-07-12T19:23:00.314Z,4.33
2018-07-12T19:25:28.560Z,3.80
2018-07-12T19:27:56.868Z,3.57
2018-07-12T19:30:25.391Z,4.00
2018-07-12T19:32:57.148Z,3.63
2018-07-12T19:35:25.466Z,3.63
2018-07-12T19:37:54.016Z,3.60
2018-07-12T19:40:23.119Z,7.13
2018-07-12T19:42:51.359Z,4.27
2018-07-12T19:45:19.909Z,4.00
2018-07-12T19:47:48.208Z,3.90
2018-07-12T19:50:16.778Z,4.30
2018-07-12T19:52:46.520Z,3.63
2018-07-12T19:55:15.008Z,3.63
2018-07-12T19:57:44.520Z,3.57
2018-07-12T20:00:15.013Z,5.63
2018-07-12T20:02:43.798Z,8.30
2018-07-12T20:05:11.962Z,4.60
2018-07-12T20:07:40.528Z,5.30
2018-07-12T20:10:09.657Z,4.70
2018-07-12T20:12:38.342Z,7.30
2018-07-12T20:15:07.568Z,4.77
2018-07-12T20:17:37.254Z,7.87
2018-07-12T20:20:06.206Z,14.30
2018-07-12T20:22:34.770Z,4.70
2018-07-12T20:25:03.379Z,4.83
2018-07-12T20:27:31.586Z,7.07
2018-07-12T20:30:01.139Z,5.33
2018-07-12T20:32:29.989Z,14.10
2018-07-12T20:34:58.538Z,6.27
2018-07-12T20:37:27.251Z,6.20
2018-07-12T20:39:55.752Z,4.93
2018-07-12T20:42:23.992Z,4.20
2018-07-12T20:44:52.478Z,5.80
2018-07-12T20:47:21.009Z,5.17
2018-07-12T20:49:49.567Z,4.20
2018-07-12T20:52:18.069Z,11.73
2018-07-12T20:54:46.524Z,5.17
2018-07-12T20:57:15.037Z,5.43
2018-07-12T20:59:43.785Z,4.90
2018-07-12T21:02:11.991Z,8.20
2018-07-12T21:04:40.132Z,5.73
2018-07-12T21:07:08.280Z,5.67
2018-07-12T21:09:37.082Z,5.17
2018-07-12T21:12:05.570Z,5.43
2018-07-12T21:14:33.734Z,6.03
2018-07-12T21:17:01.887Z,7.67
2018-07-12T21:19:30.025Z,6.30
2018-07-12T21:21:58.504Z,7.30
2018-07-12T21:24:26.669Z,5.93
2018-07-12T21:26:55.137Z,7.43
2018-07-12T21:29:23.619Z,6.97
2018-07-12T21:31:52.110Z,6.27
2018-07-12T21:34:20.234Z,5.97
2018-07-12T21:36:48.419Z,11.67
2018-07-12T21:39:16.568Z,8.57
2018-07-12T21:41:44.731Z,6.23
2018-07-12T21:44:13.183Z,7.60
2018-07-12T21:46:41.291Z,6.30
2018-07-12T21:49:09.438Z,6.33
2018-07-12T21:51:37.658Z,11.63
2018-07-12T21:54:05.739Z,6.40
2018-07-12T21:56:33.884Z,8.43
2018-07-12T21:59:02.416Z,9.10
2018-07-12T22:01:30.537Z,7.90
2018-07-12T22:03:59.044Z,7.97
2018-07-12T22:07:10.087Z,6.60
2018-07-12T22:09:38.170Z,6.47
2018-07-12T22:12:06.269Z,7.33
2018-07-12T22:14:34.731Z,7.30
2018-07-12T22:17:03.175Z,7.47
2018-07-12T22:19:31.252Z,8.30
2018-07-12T22:21:59.758Z,8.73
2018-07-12T22:24:28.172Z,9.60
2018-07-12T22:26:56.613Z,7.23
2018-07-12T22:29:24.715Z,8.50
2018-07-12T22:31:53.220Z,7.80
2018-07-12T22:34:21.306Z,9.47
2018-07-12T22:36:49.411Z,10.70
2018-07-12T22:39:17.535Z,10.23
2018-07-12T22:41:45.994Z,8.43
2018-07-12T22:44:14.451Z,7.83
2018-07-12T22:46:42.614Z,7.50
2018-07-12T22:49:11.007Z,8.13
2018-07-12T22:51:39.133Z,10.73
2018-07-12T22:54:07.238Z,8.87
2018-07-12T22:56:35.698Z,7.07
2018-07-12T22:59:04.120Z,8.80
2018-07-12T23:01:32.508Z,7.97
2018-07-12T23:04:01.046Z,8.30
2018-07-12T23:06:29.207Z,10.00
2018-07-12T23:08:57.390Z,8.20
2018-07-12T23:11:25.491Z,8.23
2018-07-12T23:13:53.686Z,14.20
2018-07-12T23:16:22.081Z,8.53
2018-07-12T23:18:50.212Z,6.60
2018-07-12T23:21:18.325Z,11.10
2018-07-12T23:23:46.730Z,8.87
2018-07-12T23:26:14.832Z,6.40
2018-07-12T23:28:43.291Z,7.97
2018-07-12T23:31:11.615Z,13.63
2018-07-12T23:33:40.376Z,6.93
2018-07-12T23:36:08.553Z,8.37
2018-07-12T23:38:36.679Z,7.90
2018-07-12T23:41:04.783Z,7.10
2018-07-12T23:43:33.212Z,7.93
2018-07-12T23:46:01.775Z,13.53
2018-07-12T23:48:30.193Z,8.20
2018-07-12T23:50:58.617Z,8.13
2018-07-12T23:53:26.705Z,10.23
2018-07-12T23:55:55.163Z,10.33
2018-07-12T23:58:23.690Z,10.07
